sensor_id;sensor_type;location;lat;lon;timestamp;pressure;altitude;pressure_sealevel;temperature;humidity
63582;BME280;49727;51.078;17.066;2022-12-18T00:14:14;101774.56;;;-4.63;73.43
63582;BME280;49727;51.078;17.066;2022-12-18T00:29:15;101786.00;;;-4.72;73.59
63582;BME280;49727;51.078;17.066;2022-12-18T00:44:17;101820.03;;;-4.83;72.99
63582;BME280;49727;51.078;17.066;2022-12-18T00:59:18;101833.75;;;-4.74;73.68
63582;BME280;49727;51.078;17.066;2022-12-18T01:14:19;101857.34;;;-4.84;74.29
63582;BME280;49727;51.078;17.066;2022-12-18T01:29:19;101868.56;;;-4.82;73.63
63582;BME280;49727;51.078;17.066;2022-12-18T01:44:55;101873.66;;;-4.76;74.14
63582;BME280;49727;51.078;17.066;2022-12-18T02:00:00;101877.84;;;-4.68;74.33
63582;BME280;49727;51.078;17.066;2022-12-18T02:30:39;101906.09;;;-4.97;73.96
63582;BME280;49727;51.078;17.066;2022-12-18T02:45:55;101919.19;;;-5.01;74.09
63582;BME280;49727;51.078;17.066;2022-12-18T03:01:03;101928.81;;;-5.06;74.55
63582;BME280;49727;51.078;17.066;2022-12-18T03:16:11;101919.97;;;-4.98;74.25
63582;BME280;49727;51.078;17.066;2022-12-18T03:31:13;101932.00;;;-4.90;74.78
63582;BME280;49727;51.078;17.066;2022-12-18T03:46:30;101945.94;;;-4.95;74.52
63582;BME280;49727;51.078;17.066;2022-12-18T04:01:37;101958.34;;;-5.11;74.19
63582;BME280;49727;51.078;17.066;2022-12-18T04:16:38;101965.84;;;-4.95;74.44
63582;BME280;49727;51.078;17.066;2022-12-18T04:31:39;101988.66;;;-5.10;73.95
63582;BME280;49727;51.078;17.066;2022-12-18T04:46:40;101999.38;;;-5.31;73.94
63582;BME280;49727;51.078;17.066;2022-12-18T05:01:40;102020.09;;;-5.28;74.58
63582;BME280;49727;51.078;17.066;2022-12-18T05:16:41;102036.84;;;-5.48;73.63
63582;BME280;49727;51.078;17.066;2022-12-18T05:31:41;102038.72;;;-5.57;74.72
63582;BME280;49727;51.078;17.066;2022-12-18T05:46:41;102053.41;;;-5.55;74.31
63582;BME280;49727;51.078;17.066;2022-12-18T06:01:42;102072.47;;;-5.56;74.43
63582;BME280;49727;51.078;17.066;2022-12-18T06:16:43;102081.22;;;-5.65;74.36
63582;BME280;49727;51.078;17.066;2022-12-18T06:31:43;102105.19;;;-5.42;75.12
63582;BME280;49727;51.078;17.066;2022-12-18T06:46:44;102125.97;;;-5.44;74.59
63582;BME280;49727;51.078;17.066;2022-12-18T07:01:44;102136.19;;;-5.29;74.53
63582;BME280;49727;51.078;17.066;2022-12-18T07:16:44;102156.88;;;-5.22;74.19
63582;BME280;49727;51.078;17.066;2022-12-18T07:31:45;102164.78;;;-5.32;74.41
63582;BME280;49727;51.078;17.066;2022-12-18T07:46:45;102192.34;;;-5.20;73.69
63582;BME280;49727;51.078;17.066;2022-12-18T08:01:45;102189.28;;;-5.53;73.77
63582;BME280;49727;51.078;17.066;2022-12-18T08:16:46;102215.16;;;-5.42;74.03
63582;BME280;49727;51.078;17.066;2022-12-18T08:31:46;102231.56;;;-5.41;73.52
63582;BME280;49727;51.078;17.066;2022-12-18T08:46:47;102239.81;;;-5.05;73.42
63582;BME280;49727;51.078;17.066;2022-12-18T09:01:47;102250.78;;;-4.82;73.63
63582;BME280;49727;51.078;17.066;2022-12-18T09:16:48;102239.38;;;-4.71;72.21
63582;BME280;49727;51.078;17.066;2022-12-18T09:31:49;102204.44;;;-4.53;72.24
63582;BME280;49727;51.078;17.066;2022-12-18T09:47:01;102188.25;;;-4.18;72.74
63582;BME280;49727;51.078;17.066;2022-12-18T10:02:20;102187.22;;;-4.64;71.78
63582;BME280;49727;51.078;17.066;2022-12-18T10:32:37;102210.72;;;-4.68;72.12
63582;BME280;49727;51.078;17.066;2022-12-18T10:47:43;102199.53;;;-4.73;71.94
63582;BME280;49727;51.078;17.066;2022-12-18T11:02:44;102210.91;;;-4.81;71.74
63582;BME280;49727;51.078;17.066;2022-12-18T11:17:50;102222.94;;;-4.73;71.98
63582;BME280;49727;51.078;17.066;2022-12-18T11:33:03;102237.53;;;-4.63;72.11
63582;BME280;49727;51.078;17.066;2022-12-18T12:48:59;102184.78;;;-3.70;70.35
63582;BME280;49727;51.078;17.066;2022-12-18T13:04:21;102208.00;;;-4.08;69.94
63582;BME280;49727;51.078;17.066;2022-12-18T13:19:25;102192.28;;;-4.53;69.85
63582;BME280;49727;51.078;17.066;2022-12-18T13:34:30;102191.78;;;-4.77;70.58
63582;BME280;49727;51.078;17.066;2022-12-18T14:04:37;102225.44;;;-5.33;72.01
63582;BME280;49727;51.078;17.066;2022-12-18T14:19:42;102259.34;;;-5.48;72.14
63582;BME280;49727;51.078;17.066;2022-12-18T14:34:47;102266.56;;;-5.75;73.01
63582;BME280;49727;51.078;17.066;2022-12-18T14:49:48;102264.00;;;-5.80;73.35
63582;BME280;49727;51.078;17.066;2022-12-18T15:05:05;102274.50;;;-5.95;72.99
63582;BME280;49727;51.078;17.066;2022-12-18T15:20:16;102252.22;;;-6.13;73.76
63582;BME280;49727;51.078;17.066;2022-12-18T15:50:18;102238.72;;;-6.60;74.14
63582;BME280;49727;51.078;17.066;2022-12-18T16:05:20;102210.25;;;-6.69;74.51
63582;BME280;49727;51.078;17.066;2022-12-18T16:20:22;102218.09;;;-6.80;74.62
63582;BME280;49727;51.078;17.066;2022-12-18T16:35:23;102206.25;;;-7.32;74.43
63582;BME280;49727;51.078;17.066;2022-12-18T16:50:24;102202.06;;;-7.76;75.03
63582;BME280;49727;51.078;17.066;2022-12-18T17:05:24;102209.03;;;-8.12;75.13
63582;BME280;49727;51.078;17.066;2022-12-18T17:20:25;102224.53;;;-8.37;75.54
63582;BME280;49727;51.078;17.066;2022-12-18T17:35:25;102215.06;;;-8.64;76.03
63582;BME280;49727;51.078;17.066;2022-12-18T17:50:25;102225.38;;;-8.78;76.52
63582;BME280;49727;51.078;17.066;2022-12-18T18:05:26;102223.63;;;-8.92;76.36
63582;BME280;49727;51.078;17.066;2022-12-18T18:20:26;102235.66;;;-8.97;76.85
63582;BME280;49727;51.078;17.066;2022-12-18T18:35:29;102200.34;;;-9.06;75.94
63582;BME280;49727;51.078;17.066;2022-12-18T18:50:30;102200.31;;;-9.13;76.81
63582;BME280;49727;51.078;17.066;2022-12-18T19:05:31;102217.47;;;-9.25;76.33
63582;BME280;49727;51.078;17.066;2022-12-18T19:20:31;102218.28;;;-9.33;77.36
63582;BME280;49727;51.078;17.066;2022-12-18T19:35:32;102208.84;;;-9.34;76.82
63582;BME280;49727;51.078;17.066;2022-12-18T19:50:33;102185.56;;;-9.41;76.72
63582;BME280;49727;51.078;17.066;2022-12-18T20:05:34;102181.25;;;-9.46;76.96
63582;BME280;49727;51.078;17.066;2022-12-18T20:20:35;102179.50;;;-9.47;77.41
63582;BME280;49727;51.078;17.066;2022-12-18T20:35:36;102179.50;;;-9.50;76.96
63582;BME280;49727;51.078;17.066;2022-12-18T20:50:37;102178.63;;;-9.54;76.91
63582;BME280;49727;51.078;17.066;2022-12-18T21:05:37;102167.41;;;-9.62;76.83
63582;BME280;49727;51.078;17.066;2022-12-18T21:20:37;102185.41;;;-9.75;77.45
63582;BME280;49727;51.078;17.066;2022-12-18T21:35:38;102184.50;;;-9.81;76.93
63582;BME280;49727;51.078;17.066;2022-12-18T21:50:38;102157.84;;;-9.83;77.52
63582;BME280;49727;51.078;17.066;2022-12-18T22:05:39;102120.06;;;-9.78;76.84
63582;BME280;49727;51.078;17.066;2022-12-18T22:20:39;102108.84;;;-9.80;77.86
63582;BME280;49727;51.078;17.066;2022-12-18T22:35:40;102097.72;;;-9.72;77.13
63582;BME280;49727;51.078;17.066;2022-12-18T22:50:40;102080.56;;;-9.62;77.03
63582;BME280;49727;51.078;17.066;2022-12-18T23:05:40;102055.56;;;-9.72;76.85
63582;BME280;49727;51.078;17.066;2022-12-18T23:20:41;102048.66;;;-9.86;77.45
63582;BME280;49727;51.078;17.066;2022-12-18T23:35:41;102041.75;;;-9.93;77.61
63582;BME280;49727;51.078;17.066;2022-12-18T23:50:42;102014.19;;;-10.06;76.38
